createdAt,value
2023-03-17T00:01:11.506Z,5.50
2023-03-17T00:03:45.699Z,5.46
2023-03-17T00:06:19.598Z,5.45
2023-03-17T00:08:52.338Z,5.42
2023-03-17T00:11:27.662Z,5.40
2023-03-17T00:14:00.382Z,5.38
2023-03-17T00:16:35.636Z,5.36
2023-03-17T00:19:08.331Z,5.35
2023-03-17T00:21:42.146Z,5.33
2023-03-17T00:24:16.077Z,5.30
2023-03-17T00:26:50.253Z,5.28
2023-03-17T00:29:23.030Z,5.28
2023-03-17T00:31:58.248Z,5.27
2023-03-17T00:34:31.128Z,5.27
2023-03-17T00:37:04.287Z,5.25
2023-03-17T00:39:37.279Z,5.25
2023-03-17T00:42:11.549Z,5.25
2023-03-17T00:44:44.746Z,5.24
2023-03-17T00:47:17.505Z,5.24
2023-03-17T00:49:50.206Z,5.24
2023-03-17T00:52:22.919Z,5.23
2023-03-17T00:54:56.025Z,5.21
2023-03-17T00:57:30.223Z,5.20
2023-03-17T01:00:03.330Z,5.19
2023-03-17T01:02:36.270Z,5.19
2023-03-17T01:05:09.141Z,5.17
2023-03-17T01:07:42.624Z,5.17
2023-03-17T01:10:17.296Z,5.15
2023-03-17T01:12:52.216Z,5.14
2023-03-17T01:15:25.580Z,5.12
2023-03-17T01:17:58.526Z,5.12
2023-03-17T01:20:32.822Z,5.10
2023-03-17T01:23:05.710Z,5.09
2023-03-17T01:25:39.288Z,5.09
2023-03-17T01:28:14.666Z,5.09
2023-03-17T01:30:47.530Z,5.09
2023-03-17T01:33:20.798Z,5.09
2023-03-17T01:35:53.670Z,5.09
2023-03-17T01:38:26.425Z,5.08
2023-03-17T01:40:59.530Z,5.09
2023-03-17T01:43:33.739Z,5.10
2023-03-17T01:46:18.430Z,5.10
2023-03-17T01:48:56.470Z,5.11
2023-03-17T01:51:33.133Z,5.11
2023-03-17T01:54:08.451Z,5.12
2023-03-17T01:56:43.324Z,5.13
2023-03-17T01:59:20.061Z,5.13
2023-03-17T02:01:56.733Z,5.13
2023-03-17T02:04:29.925Z,5.14
2023-03-17T02:07:03.818Z,5.14
2023-03-17T02:09:36.819Z,5.16
2023-03-17T02:12:10.684Z,5.16
2023-03-17T02:14:45.253Z,5.17
2023-03-17T02:17:18.134Z,5.16
2023-03-17T02:19:51.727Z,5.16
2023-03-17T02:22:26.250Z,5.18
2023-03-17T02:25:00.874Z,5.18
2023-03-17T02:27:35.905Z,5.16
2023-03-17T02:30:09.913Z,5.17
2023-03-17T02:32:43.456Z,5.14
2023-03-17T02:35:16.540Z,5.12
2023-03-17T02:37:50.622Z,5.11
2023-03-17T02:40:24.312Z,5.10
2023-03-17T02:42:57.688Z,5.07
2023-03-17T02:45:31.166Z,5.04
2023-03-17T02:48:04.094Z,5.01
2023-03-17T02:50:37.485Z,5.01
2023-03-17T02:53:11.663Z,4.97
2023-03-17T02:55:44.767Z,4.97
2023-03-17T02:58:17.465Z,4.94
2023-03-17T03:00:50.420Z,4.94
2023-03-17T03:03:23.414Z,4.94
2023-03-17T03:05:57.608Z,4.92
2023-03-17T03:08:32.183Z,4.90
2023-03-17T03:11:05.219Z,4.90
2023-03-17T03:13:39.028Z,4.88
2023-03-17T03:16:11.803Z,4.89
2023-03-17T03:18:44.782Z,4.90
2023-03-17T03:21:17.516Z,4.89
2023-03-17T03:23:51.764Z,4.90
2023-03-17T03:26:24.655Z,4.90
2023-03-17T03:28:57.454Z,4.92
2023-03-17T03:31:30.213Z,4.92
2023-03-17T03:34:03.392Z,4.95
2023-03-17T03:36:37.035Z,4.96
2023-03-17T03:39:14.199Z,4.98
2023-03-17T03:41:47.190Z,5.02
2023-03-17T03:44:19.932Z,5.03
2023-03-17T03:46:52.947Z,5.04
2023-03-17T03:49:25.725Z,5.07
2023-03-17T03:51:58.522Z,5.08
2023-03-17T03:54:32.649Z,5.09
2023-03-17T03:57:05.867Z,5.09
2023-03-17T03:59:39.146Z,5.10
2023-03-17T04:02:11.939Z,5.11
2023-03-17T04:04:44.765Z,5.13
2023-03-17T04:07:17.587Z,5.13
2023-03-17T04:09:51.703Z,5.13
2023-03-17T04:12:24.355Z,5.16
2023-03-17T04:14:57.286Z,5.15
2023-03-17T04:17:29.944Z,5.18
2023-03-17T04:20:03.044Z,5.18
2023-03-17T04:22:35.833Z,5.20
2023-03-17T04:25:10.747Z,5.21
2023-03-17T04:27:43.931Z,5.19
2023-03-17T04:30:17.172Z,5.18
2023-03-17T04:32:49.868Z,5.18
2023-03-17T04:35:22.905Z,5.16
2023-03-17T04:37:55.639Z,5.13
2023-03-17T04:40:30.120Z,5.12
2023-03-17T04:43:03.604Z,5.10
2023-03-17T04:45:36.677Z,5.05
2023-03-17T04:48:10.553Z,5.05
2023-03-17T04:50:44.432Z,5.02
2023-03-17T04:53:17.760Z,5.01
2023-03-17T04:55:52.342Z,4.97
2023-03-17T04:58:30.783Z,4.96
2023-03-17T05:01:03.944Z,4.93
2023-03-17T05:03:36.842Z,4.92
2023-03-17T05:06:09.688Z,4.90
2023-03-17T05:08:43.744Z,4.86
2023-03-17T05:11:18.283Z,4.84
2023-03-17T05:13:51.067Z,4.81
2023-03-17T05:16:23.888Z,4.79
2023-03-17T05:18:56.619Z,4.76
2023-03-17T05:21:29.323Z,4.74
2023-03-17T05:24:01.997Z,4.69
2023-03-17T05:26:36.532Z,4.65
2023-03-17T05:29:09.914Z,4.63
2023-03-17T05:31:43.358Z,4.59
2023-03-17T05:34:17.475Z,4.57
2023-03-17T05:36:50.748Z,4.52
2023-03-17T05:39:23.458Z,4.50
2023-03-17T05:41:58.055Z,4.48
2023-03-17T05:44:31.056Z,4.43
2023-03-17T05:47:03.882Z,4.42
2023-03-17T05:49:36.993Z,4.41
2023-03-17T05:52:09.966Z,4.37
2023-03-17T05:54:42.676Z,4.37
2023-03-17T05:57:17.104Z,4.35
2023-03-17T05:59:50.877Z,4.33
2023-03-17T06:02:23.891Z,4.35
2023-03-17T06:04:56.784Z,4.35
2023-03-17T06:07:38.173Z,4.35
2023-03-17T06:10:21.494Z,4.37
2023-03-17T06:12:55.754Z,4.40
2023-03-17T06:15:29.025Z,4.41
2023-03-17T06:18:02.001Z,4.45
2023-03-17T06:20:35.243Z,4.47
2023-03-17T06:23:08.054Z,4.50
2023-03-17T06:25:41.646Z,4.54
2023-03-17T06:28:15.765Z,4.60
2023-03-17T06:30:48.501Z,4.65
2023-03-17T06:33:22.133Z,4.72
2023-03-17T06:35:54.853Z,4.84
2023-03-17T06:38:27.628Z,4.94
2023-03-17T06:41:00.313Z,5.07
2023-03-17T06:43:34.461Z,5.20
2023-03-17T06:46:07.495Z,5.34
2023-03-17T06:48:40.400Z,5.49
2023-03-17T06:51:13.107Z,5.66
2023-03-17T06:53:45.904Z,5.83
2023-03-17T06:56:29.569Z,5.98
2023-03-17T06:59:05.229Z,6.17
2023-03-17T07:01:38.347Z,6.36
2023-03-17T07:04:11.235Z,6.53
2023-03-17T07:06:44.962Z,6.69
2023-03-17T07:09:17.657Z,6.86
2023-03-17T07:11:50.711Z,7.05
2023-03-17T07:14:25.746Z,7.22
2023-03-17T07:16:58.558Z,7.41
2023-03-17T07:19:31.973Z,7.58
2023-03-17T07:22:04.703Z,7.75
2023-03-17T07:24:37.473Z,7.91
2023-03-17T07:27:10.176Z,8.09
2023-03-17T07:29:44.395Z,8.24
2023-03-17T07:32:17.099Z,8.42
2023-03-17T07:34:50.106Z,8.56
2023-03-17T07:37:22.963Z,8.71
2023-03-17T07:39:56.209Z,8.88
2023-03-17T07:42:30.139Z,9.03
2023-03-17T07:45:05.982Z,9.17
2023-03-17T07:47:39.405Z,9.32
2023-03-17T07:50:12.523Z,9.45
2023-03-17T07:52:45.334Z,9.56
2023-03-17T07:55:18.139Z,9.70
2023-03-17T07:57:50.951Z,9.80
2023-03-17T08:00:27.125Z,9.92
2023-03-17T08:03:09.969Z,10.01
2023-03-17T08:05:44.663Z,10.14
2023-03-17T08:08:17.384Z,10.26
2023-03-17T08:10:50.184Z,10.37
2023-03-17T08:13:23.142Z,10.47
2023-03-17T08:15:57.236Z,10.61
2023-03-17T08:18:29.938Z,10.74
2023-03-17T08:21:02.852Z,10.90
2023-03-17T08:23:35.712Z,11.06
2023-03-17T08:26:08.629Z,11.23
2023-03-17T08:28:41.517Z,11.41
2023-03-17T08:31:17.216Z,11.58
2023-03-17T08:33:50.672Z,11.75
2023-03-17T08:36:24.049Z,11.91
2023-03-17T08:38:56.799Z,12.08
2023-03-17T08:41:29.571Z,12.24
2023-03-17T08:44:02.284Z,12.39
2023-03-17T08:46:36.947Z,12.52
2023-03-17T08:49:10.284Z,12.63
2023-03-17T08:51:44.181Z,12.71
2023-03-17T08:54:16.983Z,12.77
2023-03-17T08:56:50.032Z,12.85
2023-03-17T08:59:23.155Z,12.91
2023-03-17T09:01:57.225Z,12.96
2023-03-17T09:04:29.909Z,13.01
2023-03-17T09:07:04.207Z,13.06
2023-03-17T09:09:37.593Z,13.14
2023-03-17T09:12:11.265Z,13.18
2023-03-17T09:14:45.238Z,13.24
2023-03-17T09:17:20.400Z,13.29
2023-03-17T09:19:53.206Z,13.33
2023-03-17T09:22:26.256Z,13.37
2023-03-17T09:24:59.275Z,13.42
2023-03-17T09:27:32.132Z,13.49
2023-03-17T09:30:06.005Z,13.53
2023-03-17T09:32:40.281Z,13.59
2023-03-17T09:35:12.970Z,13.64
2023-03-17T09:37:45.655Z,13.69
2023-03-17T09:40:19.772Z,13.74
2023-03-17T09:42:59.295Z,13.81
2023-03-17T09:45:34.712Z,13.85
2023-03-17T09:48:18.483Z,13.93
2023-03-17T09:50:55.105Z,14.01
2023-03-17T09:53:34.011Z,14.09
2023-03-17T09:56:08.919Z,14.18
2023-03-17T09:58:43.410Z,14.27
2023-03-17T10:01:16.334Z,14.39
2023-03-17T10:03:51.597Z,14.49
2023-03-17T10:06:32.270Z,14.61
2023-03-17T10:09:09.533Z,14.73
2023-03-17T10:11:43.087Z,14.89
2023-03-17T10:14:24.873Z,15.02
2023-03-17T10:17:01.849Z,15.18
2023-03-17T10:19:39.561Z,15.33
2023-03-17T10:22:16.000Z,15.47
2023-03-17T10:24:51.832Z,15.61
2023-03-17T10:27:24.556Z,15.74
2023-03-17T10:29:57.733Z,15.88
2023-03-17T10:32:31.971Z,16.03
2023-03-17T10:35:06.960Z,16.16
2023-03-17T10:37:43.358Z,16.30
2023-03-17T10:40:22.035Z,16.45
2023-03-17T10:42:56.976Z,16.59
2023-03-17T10:45:30.912Z,16.73
2023-03-17T10:48:04.350Z,16.85
2023-03-17T10:50:39.724Z,17.00
2023-03-17T10:53:28.591Z,17.11
2023-03-17T10:56:08.112Z,17.24
2023-03-17T10:58:44.338Z,17.34
2023-03-17T11:01:20.371Z,17.46
2023-03-17T11:03:53.142Z,17.55
2023-03-17T11:06:34.111Z,17.62
2023-03-17T11:09:09.380Z,17.70
2023-03-17T11:11:46.619Z,17.79
2023-03-17T11:14:20.234Z,17.86
2023-03-17T11:16:54.600Z,17.93
2023-03-17T11:19:32.823Z,18.01
2023-03-17T11:22:12.037Z,18.09
2023-03-17T11:24:51.696Z,18.18
2023-03-17T11:27:30.213Z,18.27
2023-03-17T11:30:20.899Z,18.36
2023-03-17T11:32:58.199Z,18.47
2023-03-17T11:35:37.314Z,18.58
2023-03-17T11:38:17.927Z,18.69
2023-03-17T11:40:59.620Z,18.79
2023-03-17T11:43:35.766Z,18.86
2023-03-17T11:46:10.548Z,18.91
2023-03-17T11:48:49.584Z,18.96
2023-03-17T11:51:27.652Z,18.99
2023-03-17T11:54:08.085Z,19.01
2023-03-17T11:56:42.865Z,19.01
2023-03-17T11:59:19.838Z,19.05
2023-03-17T12:01:56.643Z,19.07
2023-03-17T12:04:34.449Z,19.09
2023-03-17T12:07:15.516Z,19.14
2023-03-17T12:09:53.623Z,19.19
2023-03-17T12:12:29.562Z,19.25
2023-03-17T12:15:05.355Z,19.28
2023-03-17T12:17:40.452Z,19.33
2023-03-17T12:20:18.424Z,19.33
2023-03-17T12:22:57.137Z,19.33
2023-03-17T12:25:33.143Z,19.34
2023-03-17T12:28:11.037Z,19.31
2023-03-17T12:30:48.484Z,19.29
2023-03-17T12:33:23.655Z,19.26
2023-03-17T12:35:58.359Z,19.22
2023-03-17T12:38:36.384Z,19.20
2023-03-17T12:41:21.978Z,19.18
2023-03-17T12:44:00.874Z,19.16
2023-03-17T12:46:44.361Z,19.11
2023-03-17T12:49:32.006Z,19.09
2023-03-17T12:52:14.220Z,19.08
2023-03-17T12:54:47.974Z,19.05
2023-03-17T12:57:24.324Z,19.06
2023-03-17T12:59:59.897Z,19.05
2023-03-17T13:02:36.614Z,19.07
2023-03-17T13:05:11.851Z,19.07
2023-03-17T13:07:50.217Z,19.08
2023-03-17T13:10:38.364Z,19.08
2023-03-17T13:13:23.283Z,19.06
2023-03-17T13:16:00.492Z,19.06
2023-03-17T13:18:51.750Z,19.05
2023-03-17T13:21:26.412Z,19.03
2023-03-17T13:24:01.362Z,19.05
2023-03-17T13:27:04.673Z,19.06
2023-03-17T13:29:54.458Z,19.09
2023-03-17T13:32:45.529Z,19.14
2023-03-17T13:35:22.234Z,19.24
2023-03-17T13:38:21.093Z,19.37
2023-03-17T13:40:59.966Z,19.51
2023-03-17T13:43:43.523Z,19.65
2023-03-17T13:46:21.242Z,19.77
2023-03-17T13:48:55.076Z,19.89
2023-03-17T13:51:33.736Z,20.00
2023-03-17T13:54:10.647Z,20.11
2023-03-17T13:56:50.133Z,20.20
2023-03-17T13:59:24.712Z,20.29
2023-03-17T14:02:01.437Z,20.36
2023-03-17T14:04:38.645Z,20.44
2023-03-17T14:07:16.894Z,20.52
2023-03-17T14:09:52.205Z,20.61
2023-03-17T14:12:29.260Z,20.68
2023-03-17T14:15:07.063Z,20.78
2023-03-17T14:17:46.111Z,20.84
2023-03-17T14:20:24.206Z,20.91
2023-03-17T14:22:58.219Z,20.94
2023-03-17T14:25:33.304Z,20.96
2023-03-17T14:28:10.976Z,20.97
2023-03-17T14:30:51.758Z,20.96
2023-03-17T14:33:27.297Z,20.96
2023-03-17T14:36:01.323Z,20.93
2023-03-17T14:38:35.415Z,20.89
2023-03-17T14:41:09.288Z,20.85
2023-03-17T14:43:42.842Z,20.83
2023-03-17T14:46:17.461Z,20.82
2023-03-17T14:48:53.120Z,20.81
2023-03-17T14:51:27.840Z,20.80
2023-03-17T14:54:02.157Z,20.79
2023-03-17T14:56:37.040Z,20.82
2023-03-17T14:59:18.522Z,20.81
2023-03-17T15:01:54.881Z,20.82
2023-03-17T15:04:30.545Z,20.85
2023-03-17T15:07:04.604Z,20.85
2023-03-17T15:09:41.692Z,20.86
2023-03-17T15:12:17.247Z,20.85
2023-03-17T15:14:51.925Z,20.84
2023-03-17T15:17:28.344Z,20.81
2023-03-17T15:20:05.521Z,20.79
2023-03-17T15:22:42.539Z,20.76
2023-03-17T15:25:19.610Z,20.72
2023-03-17T15:27:53.053Z,20.66
2023-03-17T15:30:29.484Z,20.62
2023-03-17T15:33:05.269Z,20.57
2023-03-17T15:35:39.583Z,20.51
2023-03-17T15:38:12.638Z,20.47
2023-03-17T15:40:45.807Z,20.42
2023-03-17T15:43:18.968Z,20.34
2023-03-17T15:45:54.971Z,20.28
2023-03-17T15:48:29.854Z,20.21
2023-03-17T15:51:05.897Z,20.13
2023-03-17T15:53:38.641Z,20.05
2023-03-17T15:56:16.433Z,19.94
2023-03-17T15:58:51.661Z,19.87
2023-03-17T16:01:27.660Z,19.79
2023-03-17T16:04:00.661Z,19.70
2023-03-17T16:06:35.651Z,19.66
2023-03-17T16:09:15.572Z,19.58
2023-03-17T16:11:48.239Z,19.52
2023-03-17T16:14:21.196Z,19.49
2023-03-17T16:16:53.942Z,19.43
2023-03-17T16:19:26.721Z,19.38
2023-03-17T16:22:00.924Z,19.30
2023-03-17T16:24:33.600Z,19.23
2023-03-17T16:27:14.300Z,19.17
2023-03-17T16:29:47.005Z,19.10
2023-03-17T16:32:19.921Z,19.04
2023-03-17T16:34:52.692Z,18.98
2023-03-17T16:37:26.792Z,18.91
2023-03-17T16:39:59.517Z,18.83
2023-03-17T16:42:32.557Z,18.77
2023-03-17T16:45:05.642Z,18.70
2023-03-17T16:47:38.331Z,18.63
2023-03-17T16:50:15.407Z,18.56
2023-03-17T16:52:49.535Z,18.49
2023-03-17T16:55:22.992Z,18.41
2023-03-17T16:57:57.403Z,18.34
2023-03-17T17:00:31.243Z,18.25
2023-03-17T17:03:04.254Z,18.17
2023-03-17T17:05:37.051Z,18.08
2023-03-17T17:08:11.583Z,18.00
2023-03-17T17:10:44.309Z,17.92
2023-03-17T17:13:17.540Z,17.84
2023-03-17T17:15:50.367Z,17.77
2023-03-17T17:18:24.624Z,17.66
2023-03-17T17:20:57.889Z,17.58
2023-03-17T17:23:32.501Z,17.50
2023-03-17T17:26:05.329Z,17.39
2023-03-17T17:28:39.588Z,17.28
2023-03-17T17:31:12.402Z,17.18
2023-03-17T17:33:45.463Z,17.07
2023-03-17T17:36:18.490Z,16.96
2023-03-17T17:38:52.804Z,16.86
2023-03-17T17:41:25.701Z,16.77
2023-03-17T17:43:58.437Z,16.67
2023-03-17T17:46:31.352Z,16.56
2023-03-17T17:49:05.257Z,16.48
2023-03-17T17:51:37.992Z,16.37
2023-03-17T17:54:12.444Z,16.28
2023-03-17T17:56:46.963Z,16.20
2023-03-17T17:59:19.690Z,16.09
2023-03-17T18:01:52.347Z,16.02
2023-03-17T18:04:25.884Z,15.90
2023-03-17T18:06:58.571Z,15.80
2023-03-17T18:09:32.872Z,15.71
2023-03-17T18:12:05.828Z,15.62
2023-03-17T18:14:38.583Z,15.54
2023-03-17T18:17:11.336Z,15.45
2023-03-17T18:19:44.176Z,15.36
2023-03-17T18:22:17.375Z,15.29
2023-03-17T18:24:51.866Z,15.20
2023-03-17T18:27:24.648Z,15.13
2023-03-17T18:29:58.487Z,15.06
2023-03-17T18:32:31.389Z,14.99
2023-03-17T18:35:08.961Z,14.91
2023-03-17T18:37:41.970Z,14.84
2023-03-17T18:40:32.196Z,14.78
2023-03-17T18:43:04.954Z,14.70
2023-03-17T18:45:37.993Z,14.65
2023-03-17T18:48:10.701Z,14.58
2023-03-17T18:50:43.453Z,14.53
2023-03-17T18:53:16.111Z,14.47
2023-03-17T18:55:50.541Z,14.41
2023-03-17T18:58:23.332Z,14.36
2023-03-17T19:00:58.964Z,14.32
2023-03-17T19:03:32.480Z,14.26
2023-03-17T19:06:08.745Z,14.20
2023-03-17T19:08:41.522Z,14.16
2023-03-17T19:11:16.977Z,14.09
2023-03-17T19:13:49.950Z,14.06
2023-03-17T19:16:28.956Z,14.00
2023-03-17T19:19:02.161Z,13.93
2023-03-17T19:21:34.896Z,13.89
2023-03-17T19:24:09.720Z,13.85
2023-03-17T19:26:45.403Z,13.80
2023-03-17T19:29:18.223Z,13.74
2023-03-17T19:31:51.365Z,13.71
2023-03-17T19:34:24.211Z,13.66
2023-03-17T19:36:57.042Z,13.63
2023-03-17T19:39:31.353Z,13.59
2023-03-17T19:42:05.836Z,13.55
2023-03-17T19:44:38.545Z,13.50
2023-03-17T19:47:11.297Z,13.47
2023-03-17T19:49:44.349Z,13.42
2023-03-17T19:52:18.138Z,13.39
2023-03-17T19:54:50.923Z,13.35
2023-03-17T19:57:25.384Z,13.31
2023-03-17T19:59:58.394Z,13.30
2023-03-17T20:02:31.392Z,13.26
2023-03-17T20:05:04.656Z,13.21
2023-03-17T20:07:37.606Z,13.18
2023-03-17T20:10:11.644Z,13.14
2023-03-17T20:12:46.124Z,13.08
2023-03-17T20:15:19.372Z,13.04
2023-03-17T20:17:52.028Z,12.99
2023-03-17T20:20:24.700Z,12.96
2023-03-17T20:22:57.397Z,12.92
2023-03-17T20:25:30.036Z,12.85
2023-03-17T20:28:05.571Z,12.82
2023-03-17T20:30:38.386Z,12.76
2023-03-17T20:33:12.493Z,12.70
2023-03-17T20:35:46.748Z,12.65
2023-03-17T20:38:19.663Z,12.61
2023-03-17T20:40:52.694Z,12.54
2023-03-17T20:43:27.267Z,12.51
2023-03-17T20:45:59.928Z,12.45
2023-03-17T20:48:32.734Z,12.42
2023-03-17T20:51:06.597Z,12.38
2023-03-17T20:53:39.349Z,12.35
2023-03-17T20:56:13.782Z,12.33
2023-03-17T20:58:48.539Z,12.30
2023-03-17T21:01:22.134Z,12.26
2023-03-17T21:03:54.981Z,12.25
2023-03-17T21:06:28.561Z,12.20
2023-03-17T21:09:01.796Z,12.18
2023-03-17T21:11:34.805Z,12.15
2023-03-17T21:14:09.146Z,12.12
2023-03-17T21:16:45.109Z,12.10
2023-03-17T21:19:19.717Z,12.07
2023-03-17T21:21:52.582Z,12.05
2023-03-17T21:24:26.777Z,12.05
2023-03-17T21:27:00.193Z,12.04
2023-03-17T21:29:34.924Z,12.02
2023-03-17T21:32:08.540Z,12.01
2023-03-17T21:34:41.773Z,12.01
2023-03-17T21:37:16.045Z,12.00
2023-03-17T21:39:48.943Z,11.98
2023-03-17T21:42:21.798Z,11.95
2023-03-17T21:44:56.417Z,11.94
2023-03-17T21:47:30.251Z,11.90
2023-03-17T21:50:03.768Z,11.88
2023-03-17T21:52:37.005Z,11.84
2023-03-17T21:55:10.686Z,11.82
2023-03-17T21:57:43.554Z,11.77
2023-03-17T22:00:18.262Z,11.74
2023-03-17T22:02:51.386Z,11.71
2023-03-17T22:05:24.142Z,11.67
2023-03-17T22:07:57.215Z,11.66
2023-03-17T22:10:30.104Z,11.62
2023-03-17T22:13:03.433Z,11.60
2023-03-17T22:15:37.742Z,11.59
2023-03-17T22:18:10.653Z,11.59
2023-03-17T22:20:44.876Z,11.57
2023-03-17T22:23:18.093Z,11.57
2023-03-17T22:25:51.018Z,11.56
2023-03-17T22:28:24.294Z,11.55
2023-03-17T22:30:58.517Z,11.54
2023-03-17T22:33:31.213Z,11.53
2023-03-17T22:36:04.044Z,11.50
2023-03-17T22:38:36.763Z,11.49
2023-03-17T22:41:10.450Z,11.46
2023-03-17T22:43:43.214Z,11.45
2023-03-17T22:46:17.485Z,11.43
2023-03-17T22:48:50.461Z,11.39
2023-03-17T22:51:24.237Z,11.36
2023-03-17T22:53:57.349Z,11.35
2023-03-17T22:56:30.131Z,11.32
2023-03-17T22:59:03.091Z,11.28
2023-03-17T23:01:37.227Z,11.25
2023-03-17T23:04:10.223Z,11.24
2023-03-17T23:06:43.533Z,11.21
2023-03-17T23:09:16.179Z,11.18
2023-03-17T23:11:48.895Z,11.15
2023-03-17T23:14:21.655Z,11.14
2023-03-17T23:16:55.931Z,11.11
2023-03-17T23:19:28.617Z,11.10
2023-03-17T23:22:01.870Z,11.07
2023-03-17T23:24:34.589Z,11.06
2023-03-17T23:27:08.027Z,11.05
2023-03-17T23:29:41.218Z,11.04
2023-03-17T23:32:16.313Z,11.02
2023-03-17T23:34:49.037Z,11.01
2023-03-17T23:37:21.806Z,10.96
2023-03-17T23:39:55.078Z,10.95
2023-03-17T23:42:29.185Z,10.92
2023-03-17T23:45:02.131Z,10.89
2023-03-17T23:47:36.577Z,10.85
2023-03-17T23:50:10.332Z,10.81
2023-03-17T23:52:43.624Z,10.78
2023-03-17T23:55:17.205Z,10.76
2023-03-17T23:57:50.407Z,10.73
